createdAt,value
2022-10-17T00:02:03.321Z,18.15
2022-10-17T00:04:30.785Z,17.95
2022-10-17T00:06:58.213Z,18.15
2022-10-17T00:09:25.638Z,18.14
2022-10-17T00:11:54.459Z,18.13
2022-10-17T00:14:21.910Z,18.12
2022-10-17T00:16:49.374Z,18.13
2022-10-17T00:19:16.816Z,18.11
2022-10-17T00:21:44.257Z,18.10
2022-10-17T00:24:11.692Z,18.10
2022-10-17T00:26:39.208Z,18.09
2022-10-17T00:29:08.000Z,18.08
2022-10-17T00:31:35.707Z,18.10
2022-10-17T00:34:03.124Z,18.09
2022-10-17T00:36:30.772Z,18.08
2022-10-17T00:38:59.187Z,17.76
2022-10-17T00:41:28.375Z,18.06
2022-10-17T00:43:57.990Z,18.06
2022-10-17T00:46:27.702Z,17.71
2022-10-17T00:48:55.917Z,18.05
2022-10-17T00:51:30.094Z,18.04
2022-10-17T00:53:57.569Z,18.03
2022-10-17T00:56:25.041Z,18.04
2022-10-17T00:58:52.558Z,17.92
2022-10-17T01:01:20.134Z,18.02
2022-10-17T01:03:48.974Z,18.02
2022-10-17T01:06:16.471Z,18.00
2022-10-17T01:08:43.899Z,17.93
2022-10-17T01:11:18.254Z,17.67
2022-10-17T01:13:47.453Z,17.95
2022-10-17T01:16:16.262Z,17.88
2022-10-17T01:18:52.326Z,17.97
2022-10-17T01:21:32.431Z,17.98
2022-10-17T01:24:11.146Z,17.95
2022-10-17T01:26:45.502Z,17.93
2022-10-17T01:29:34.478Z,17.96
2022-10-17T01:32:03.982Z,17.93
2022-10-17T01:34:33.289Z,17.93
2022-10-17T01:37:03.382Z,17.93
2022-10-17T01:39:33.387Z,17.90
2022-10-17T01:42:04.172Z,17.90
2022-10-17T01:44:35.227Z,17.91
2022-10-17T01:47:05.429Z,17.90
2022-10-17T01:49:32.953Z,17.89
2022-10-17T01:52:02.778Z,17.60
2022-10-17T01:54:32.479Z,17.88
2022-10-17T01:57:01.326Z,17.86
2022-10-17T01:59:31.010Z,17.86
2022-10-17T02:01:58.569Z,17.85
2022-10-17T02:04:27.573Z,17.85
2022-10-17T02:06:55.049Z,17.84
2022-10-17T02:09:23.654Z,17.56
2022-10-17T02:12:02.494Z,17.83
2022-10-17T02:14:34.500Z,17.82
2022-10-17T02:17:06.589Z,17.74
2022-10-17T02:19:42.158Z,17.58
2022-10-17T02:22:18.030Z,17.80
2022-10-17T02:24:48.167Z,17.73
2022-10-17T02:27:15.926Z,17.76
2022-10-17T02:29:47.383Z,17.78
2022-10-17T02:32:17.167Z,17.76
2022-10-17T02:34:47.344Z,17.75
2022-10-17T02:37:15.418Z,17.74
2022-10-17T02:39:42.839Z,17.74
2022-10-17T02:42:11.338Z,17.74
2022-10-17T02:44:38.906Z,17.74
2022-10-17T02:47:10.166Z,17.55
2022-10-17T02:49:39.545Z,17.74
2022-10-17T02:52:11.617Z,17.75
2022-10-17T02:54:40.756Z,17.73
2022-10-17T02:57:09.742Z,17.74
2022-10-17T02:59:37.196Z,17.74
2022-10-17T03:02:04.844Z,17.74
2022-10-17T03:04:32.290Z,17.72
2022-10-17T03:06:59.768Z,17.72
2022-10-17T03:09:28.554Z,17.73
2022-10-17T03:11:56.001Z,17.67
2022-10-17T03:14:23.422Z,17.70
2022-10-17T03:16:50.876Z,17.72
2022-10-17T03:19:18.322Z,17.71
2022-10-17T03:21:45.789Z,17.71
2022-10-17T03:24:13.366Z,17.69
2022-10-17T03:26:42.179Z,17.69
2022-10-17T03:29:09.682Z,17.68
2022-10-17T03:31:37.202Z,17.68
2022-10-17T03:34:04.658Z,17.69
2022-10-17T03:36:32.120Z,17.67
2022-10-17T03:38:59.551Z,17.67
2022-10-17T03:41:27.008Z,17.68
2022-10-17T03:43:55.756Z,17.67
2022-10-17T03:46:23.261Z,17.66
2022-10-17T03:48:50.706Z,17.65
2022-10-17T03:51:18.153Z,17.65
2022-10-17T03:53:45.608Z,17.62
2022-10-17T03:56:13.889Z,17.37
2022-10-17T03:58:41.624Z,17.65
2022-10-17T04:01:11.500Z,17.54
2022-10-17T04:03:39.017Z,17.63
2022-10-17T04:06:06.710Z,17.63
2022-10-17T04:08:34.428Z,17.30
2022-10-17T04:11:01.906Z,17.05
2022-10-17T04:13:29.429Z,17.40
2022-10-17T04:15:56.941Z,17.60
2022-10-17T04:18:25.939Z,17.60
2022-10-17T04:20:53.387Z,17.60
2022-10-17T04:23:20.838Z,17.61
2022-10-17T04:25:48.249Z,17.61
2022-10-17T04:28:15.764Z,17.58
2022-10-17T04:30:45.500Z,17.58
2022-10-17T04:33:13.190Z,17.58
2022-10-17T04:35:41.952Z,17.56
2022-10-17T04:38:09.441Z,17.57
2022-10-17T04:40:37.430Z,17.59
2022-10-17T04:43:04.877Z,17.58
2022-10-17T04:45:32.354Z,17.58
2022-10-17T04:47:59.782Z,17.57
2022-10-17T04:50:27.323Z,17.55
2022-10-17T04:52:56.069Z,17.56
2022-10-17T04:55:23.492Z,17.54
2022-10-17T04:57:51.011Z,17.54
2022-10-17T05:00:18.540Z,17.55
2022-10-17T05:02:46.202Z,17.55
2022-10-17T05:05:13.656Z,17.54
2022-10-17T05:07:41.115Z,17.53
2022-10-17T05:10:10.533Z,17.52
2022-10-17T05:12:37.961Z,17.39
2022-10-17T05:15:06.382Z,17.51
2022-10-17T05:17:33.826Z,17.41
2022-10-17T05:20:01.272Z,17.52
2022-10-17T05:22:28.964Z,17.53
2022-10-17T05:24:56.930Z,17.53
2022-10-17T05:27:25.718Z,17.53
2022-10-17T05:29:53.154Z,17.53
2022-10-17T05:32:20.625Z,17.35
2022-10-17T05:34:48.242Z,17.58
2022-10-17T05:37:15.667Z,17.49
2022-10-17T05:39:43.085Z,17.58
2022-10-17T05:42:10.532Z,17.58
2022-10-17T05:44:39.603Z,17.56
2022-10-17T05:47:07.040Z,17.58
2022-10-17T05:49:45.995Z,17.57
2022-10-17T05:52:17.366Z,17.57
2022-10-17T05:54:45.031Z,17.29
2022-10-17T05:57:12.835Z,17.58
2022-10-17T05:59:41.579Z,17.60
2022-10-17T06:02:10.137Z,17.60
2022-10-17T06:04:37.889Z,16.49
2022-10-17T06:07:05.853Z,17.56
2022-10-17T06:09:33.336Z,17.58
2022-10-17T06:12:00.800Z,17.60
2022-10-17T06:14:28.253Z,17.57
2022-10-17T06:16:57.017Z,17.59
2022-10-17T06:19:24.466Z,17.64
2022-10-17T06:21:51.897Z,17.67
2022-10-17T06:24:19.336Z,17.71
2022-10-17T06:26:47.551Z,17.65
2022-10-17T06:29:14.977Z,17.75
2022-10-17T06:31:42.429Z,17.72
2022-10-17T06:34:11.265Z,17.79
2022-10-17T06:36:38.694Z,17.81
2022-10-17T06:39:06.161Z,17.80
2022-10-17T06:41:33.616Z,17.82
2022-10-17T06:44:01.049Z,17.83
2022-10-17T06:46:29.741Z,17.84
2022-10-17T06:48:57.191Z,17.81
2022-10-17T06:51:25.949Z,17.87
2022-10-17T06:53:53.505Z,17.89
2022-10-17T06:56:20.978Z,17.89
2022-10-17T06:58:50.677Z,17.92
2022-10-17T07:01:18.192Z,17.80
2022-10-17T07:03:48.443Z,17.83
2022-10-17T07:06:15.887Z,17.94
2022-10-17T07:08:44.966Z,17.40
2022-10-17T07:11:12.512Z,17.86
2022-10-17T07:13:40.044Z,17.41
2022-10-17T07:16:07.872Z,17.99
2022-10-17T07:18:35.352Z,18.00
2022-10-17T07:21:03.698Z,18.03
2022-10-17T07:23:31.147Z,17.60
2022-10-17T07:26:02.241Z,18.03
2022-10-17T07:28:29.781Z,18.12
2022-10-17T07:30:57.236Z,18.11
2022-10-17T07:33:24.718Z,18.19
2022-10-17T07:35:53.137Z,18.19
2022-10-17T07:38:20.676Z,18.16
2022-10-17T07:40:55.041Z,18.23
2022-10-17T07:43:24.092Z,18.22
2022-10-17T07:45:51.701Z,18.22
2022-10-17T07:48:19.227Z,18.21
2022-10-17T07:50:46.842Z,18.20
2022-10-17T07:53:14.301Z,17.83
2022-10-17T07:55:42.272Z,17.87
2022-10-17T07:58:09.936Z,18.22
2022-10-17T08:00:38.956Z,18.18
2022-10-17T08:03:06.871Z,18.25
2022-10-17T08:05:34.459Z,18.09
2022-10-17T08:08:01.954Z,18.28
2022-10-17T08:10:29.684Z,18.27
2022-10-17T08:12:57.875Z,18.32
2022-10-17T08:15:29.331Z,18.32
2022-10-17T08:18:00.723Z,18.34
2022-10-17T08:20:28.247Z,18.36
2022-10-17T08:22:55.845Z,18.37
2022-10-17T08:25:23.708Z,18.15
2022-10-17T08:27:51.138Z,18.43
2022-10-17T08:30:18.733Z,18.44
2022-10-17T08:32:46.165Z,18.48
2022-10-17T08:35:15.623Z,18.47
2022-10-17T08:37:43.076Z,18.51
2022-10-17T08:40:14.529Z,18.52
2022-10-17T08:42:49.905Z,18.53
2022-10-17T08:45:21.981Z,18.25
2022-10-17T08:47:52.649Z,18.52
2022-10-17T08:50:28.964Z,18.55
2022-10-17T08:52:57.764Z,18.53
2022-10-17T08:55:29.606Z,18.53
2022-10-17T08:57:57.070Z,18.56
2022-10-17T09:00:24.484Z,18.58
2022-10-17T09:02:58.737Z,18.38
2022-10-17T09:05:35.949Z,18.59
2022-10-17T09:08:11.095Z,18.61
2022-10-17T09:10:46.107Z,18.44
2022-10-17T09:13:20.482Z,18.66
2022-10-17T09:15:59.958Z,18.70
2022-10-17T09:18:28.463Z,18.73
2022-10-17T09:20:58.851Z,18.77
2022-10-17T09:23:27.354Z,18.79
2022-10-17T09:25:56.652Z,18.83
2022-10-17T09:28:26.765Z,18.86
2022-10-17T09:30:55.320Z,18.90
2022-10-17T09:33:35.379Z,19.07
2022-10-17T09:36:18.683Z,19.19
2022-10-17T09:38:48.675Z,19.16
2022-10-17T09:44:18.650Z,19.41
2022-10-17T09:46:52.750Z,19.42
2022-10-17T09:49:22.330Z,19.62
2022-10-17T09:51:51.064Z,19.70
2022-10-17T09:54:20.914Z,19.41
2022-10-17T09:56:58.441Z,19.86
2022-10-17T09:59:31.727Z,19.77
2022-10-17T10:02:10.707Z,19.76
2022-10-17T10:04:59.615Z,19.80
2022-10-17T10:07:29.355Z,19.85
2022-10-17T10:09:57.125Z,19.96
2022-10-17T10:12:26.076Z,20.06
2022-10-17T10:14:55.389Z,20.15
2022-10-17T10:17:43.960Z,20.32
2022-10-17T10:20:29.387Z,20.33
2022-10-17T10:23:17.122Z,20.20
2022-10-17T10:25:54.760Z,19.95
2022-10-17T10:28:24.198Z,20.06
2022-10-17T10:30:52.119Z,20.11
2022-10-17T10:33:20.341Z,20.10
2022-10-17T10:35:53.586Z,20.06
2022-10-17T10:38:22.377Z,20.00
2022-10-17T10:40:50.695Z,19.79
2022-10-17T10:43:22.765Z,19.94
2022-10-17T10:45:50.254Z,19.94
2022-10-17T10:48:21.850Z,19.99
2022-10-17T10:50:51.024Z,19.74
2022-10-17T10:53:34.781Z,19.85
2022-10-17T10:56:05.316Z,19.83
2022-10-17T10:58:41.828Z,19.84
2022-10-17T11:01:14.307Z,19.93
2022-10-17T11:03:42.945Z,19.91
2022-10-17T11:06:13.948Z,19.95
2022-10-17T11:08:45.113Z,19.97
2022-10-17T11:11:17.964Z,19.96
2022-10-17T11:13:49.592Z,19.98
2022-10-17T11:16:24.373Z,19.89
2022-10-17T11:18:53.829Z,19.95
2022-10-17T11:21:24.446Z,19.95
2022-10-17T11:23:57.295Z,19.98
2022-10-17T11:26:27.048Z,19.99
2022-10-17T11:28:54.763Z,19.82
2022-10-17T11:31:22.856Z,20.02
2022-10-17T11:33:51.770Z,20.16
2022-10-17T11:36:20.714Z,20.36
2022-10-17T11:38:50.716Z,20.41
2022-10-17T11:41:21.795Z,20.61
2022-10-17T11:43:52.154Z,20.41
2022-10-17T11:46:21.357Z,20.69
2022-10-17T11:48:59.179Z,20.49
2022-10-17T11:54:15.850Z,20.76
2022-10-17T11:56:48.115Z,20.38
2022-10-17T11:59:41.071Z,20.78
2022-10-17T12:02:12.355Z,20.80
2022-10-17T12:04:49.403Z,20.70
2022-10-17T12:07:20.666Z,20.81
2022-10-17T12:09:50.487Z,20.61
2022-10-17T12:12:27.282Z,20.63
2022-10-17T12:14:55.076Z,20.80
2022-10-17T12:17:34.748Z,20.81
2022-10-17T12:20:31.347Z,20.82
2022-10-17T12:23:03.220Z,20.80
2022-10-17T12:25:33.429Z,20.81
2022-10-17T12:28:14.145Z,20.72
2022-10-17T12:30:52.466Z,20.81
2022-10-17T12:33:22.343Z,20.79
2022-10-17T12:35:50.898Z,20.78
2022-10-17T12:38:23.204Z,20.77
2022-10-17T12:41:01.114Z,20.55
2022-10-17T12:43:54.300Z,20.74
2022-10-17T12:46:54.306Z,20.72
2022-10-17T12:49:49.143Z,20.72
2022-10-17T12:52:25.060Z,20.71
2022-10-17T12:55:11.535Z,20.69
2022-10-17T12:57:43.664Z,20.65
2022-10-17T13:00:17.193Z,20.65
2022-10-17T13:02:44.639Z,20.61
2022-10-17T13:05:15.294Z,20.62
2022-10-17T13:07:43.489Z,20.56
2022-10-17T13:10:21.265Z,20.60
2022-10-17T13:12:48.773Z,20.31
2022-10-17T13:15:18.895Z,20.57
2022-10-17T13:17:46.225Z,20.54
2022-10-17T13:20:24.464Z,20.36
2022-10-17T13:22:55.446Z,20.42
2022-10-17T13:25:23.214Z,20.52
2022-10-17T13:27:50.756Z,20.51
2022-10-17T13:30:30.888Z,20.51
2022-10-17T13:32:59.915Z,20.49
2022-10-17T13:35:55.288Z,20.32
2022-10-17T13:38:17.048Z,20.48
2022-10-17T13:40:50.154Z,20.48
2022-10-17T13:43:18.557Z,20.46
2022-10-17T13:45:49.911Z,20.29
2022-10-17T13:48:19.909Z,20.44
2022-10-17T13:50:48.717Z,20.43
2022-10-17T13:53:21.774Z,20.44
2022-10-17T13:56:09.492Z,20.43
2022-10-17T13:58:42.737Z,19.97
2022-10-17T14:01:11.838Z,20.41
2022-10-17T14:03:48.344Z,20.01
2022-10-17T14:06:18.375Z,20.40
2022-10-17T14:09:04.454Z,20.41
2022-10-17T14:11:34.659Z,20.38
2022-10-17T14:14:02.611Z,20.40
2022-10-17T14:16:37.190Z,20.13
2022-10-17T14:19:05.044Z,20.42
2022-10-17T14:21:43.228Z,20.40
2022-10-17T14:24:25.634Z,20.40
2022-10-17T14:26:53.956Z,20.33
2022-10-17T14:29:25.944Z,20.14
2022-10-17T14:32:03.409Z,20.17
2022-10-17T14:34:32.500Z,20.34
2022-10-17T14:36:59.939Z,20.32
2022-10-17T14:39:27.517Z,20.24
2022-10-17T14:41:55.054Z,20.33
2022-10-17T14:44:27.587Z,20.32
2022-10-17T14:46:57.711Z,20.30
2022-10-17T14:49:28.439Z,20.27
2022-10-17T14:52:25.171Z,20.31
2022-10-17T14:54:52.622Z,20.28
2022-10-17T14:57:22.003Z,20.30
2022-10-17T14:59:54.154Z,20.27
2022-10-17T15:02:23.752Z,20.16
2022-10-17T15:04:53.384Z,20.26
2022-10-17T15:07:21.394Z,20.25
2022-10-17T15:09:49.738Z,20.23
2022-10-17T15:12:18.318Z,19.92
2022-10-17T15:14:47.267Z,20.22
2022-10-17T15:17:16.054Z,20.22
2022-10-17T15:19:43.530Z,20.20
2022-10-17T15:22:12.362Z,20.20
2022-10-17T15:24:39.910Z,20.18
2022-10-17T15:27:08.394Z,20.19
2022-10-17T15:29:35.862Z,20.17
2022-10-17T15:32:03.551Z,20.16
2022-10-17T15:34:31.029Z,20.16
2022-10-17T15:36:58.685Z,20.14
2022-10-17T15:39:27.558Z,19.90
2022-10-17T15:41:54.994Z,20.13
2022-10-17T15:44:22.941Z,20.13
2022-10-17T15:46:50.411Z,20.12
2022-10-17T15:49:19.649Z,20.08
2022-10-17T15:51:50.335Z,20.10
2022-10-17T15:54:19.158Z,20.09
2022-10-17T15:56:50.219Z,20.09
2022-10-17T15:59:19.461Z,20.09
2022-10-17T16:01:48.559Z,20.08
2022-10-17T16:04:16.062Z,19.71
2022-10-17T16:06:43.713Z,20.06
2022-10-17T16:09:11.196Z,20.05
2022-10-17T16:11:40.037Z,20.06
2022-10-17T16:14:11.063Z,19.80
2022-10-17T16:16:38.509Z,20.01
2022-10-17T16:19:05.994Z,20.03
2022-10-17T16:21:34.707Z,20.01
2022-10-17T16:24:02.288Z,20.02
2022-10-17T16:26:29.742Z,19.88
2022-10-17T16:28:58.083Z,20.00
2022-10-17T16:31:29.594Z,20.00
2022-10-17T16:33:57.877Z,19.98
2022-10-17T16:36:25.491Z,19.99
2022-10-17T16:38:53.974Z,19.98
2022-10-17T16:41:23.301Z,19.89
2022-10-17T16:43:51.186Z,19.97
2022-10-17T16:46:18.901Z,19.96
2022-10-17T16:48:47.885Z,19.96
2022-10-17T16:51:15.746Z,19.95
2022-10-17T16:53:44.351Z,19.95
2022-10-17T16:56:12.737Z,19.94
2022-10-17T16:58:40.322Z,19.93
2022-10-17T17:01:09.409Z,19.92
2022-10-17T17:03:37.727Z,19.92
2022-10-17T17:06:07.115Z,19.92
2022-10-17T17:08:34.725Z,19.91
2022-10-17T17:11:02.184Z,19.90
2022-10-17T17:13:29.881Z,19.51
2022-10-17T17:16:06.865Z,19.91
2022-10-17T17:18:34.413Z,19.89
2022-10-17T17:21:02.269Z,19.89
2022-10-17T17:23:33.777Z,19.79
2022-10-17T17:26:02.388Z,19.88
2022-10-17T17:28:30.045Z,19.88
2022-10-17T17:30:57.621Z,19.87
2022-10-17T17:33:25.201Z,19.52
2022-10-17T17:35:55.574Z,19.87
2022-10-17T17:38:23.266Z,19.85
2022-10-17T17:40:52.049Z,19.87
2022-10-17T17:43:19.567Z,19.86
2022-10-17T17:45:47.083Z,19.56
2022-10-17T17:48:14.682Z,19.69
2022-10-17T17:50:42.585Z,19.60
2022-10-17T17:53:10.422Z,19.84
2022-10-17T17:55:37.871Z,19.78
2022-10-17T17:58:08.061Z,19.84
2022-10-17T18:00:35.803Z,19.82
2022-10-17T18:03:03.272Z,19.83
2022-10-17T18:05:30.780Z,19.75
2022-10-17T18:07:58.236Z,19.82
2022-10-17T18:10:25.712Z,19.82
2022-10-17T18:12:53.162Z,19.80
2022-10-17T18:15:21.928Z,19.82
2022-10-17T18:17:49.357Z,19.81
2022-10-17T18:20:16.976Z,19.80
2022-10-17T18:22:44.475Z,19.80
2022-10-17T18:25:11.913Z,19.78
2022-10-17T18:27:39.426Z,19.79
2022-10-17T18:30:08.417Z,19.78
2022-10-17T18:32:37.200Z,19.78
2022-10-17T18:35:04.747Z,19.77
2022-10-17T18:37:32.314Z,19.76
2022-10-17T18:39:59.778Z,19.75
2022-10-17T18:42:27.315Z,19.75
2022-10-17T18:44:54.945Z,19.75
2022-10-17T18:47:22.375Z,19.74
2022-10-17T18:49:51.207Z,19.74
2022-10-17T18:52:18.629Z,19.74
2022-10-17T18:54:46.094Z,19.72
2022-10-17T18:57:13.529Z,19.72
2022-10-17T18:59:40.953Z,19.72
2022-10-17T19:02:09.725Z,19.71
2022-10-17T19:04:37.189Z,19.71
2022-10-17T19:07:05.986Z,19.71
2022-10-17T19:09:33.718Z,19.69
2022-10-17T19:12:01.149Z,19.69
2022-10-17T19:14:30.403Z,19.70
2022-10-17T19:16:59.530Z,19.69
2022-10-17T19:19:27.376Z,19.68
2022-10-17T19:21:54.832Z,19.67
2022-10-17T19:24:24.459Z,19.67
2022-10-17T19:26:53.507Z,19.54
2022-10-17T19:29:21.560Z,19.66
2022-10-17T19:31:49.117Z,19.64
2022-10-17T19:34:16.977Z,19.62
2022-10-17T19:36:44.781Z,19.65
2022-10-17T19:39:13.389Z,19.64
2022-10-17T19:41:42.316Z,19.64
2022-10-17T19:44:09.992Z,19.43
2022-10-17T19:46:37.424Z,19.63
2022-10-17T19:49:05.244Z,19.47
2022-10-17T19:51:32.956Z,19.53
2022-10-17T19:54:01.160Z,19.42
2022-10-17T19:56:29.468Z,19.42
2022-10-17T19:58:58.305Z,19.62
2022-10-17T20:01:27.404Z,19.62
2022-10-17T20:03:54.957Z,19.22
2022-10-17T20:06:22.537Z,19.61
2022-10-17T20:08:50.009Z,19.60
2022-10-17T20:11:19.548Z,19.36
2022-10-17T20:13:47.025Z,19.60
2022-10-17T20:16:16.642Z,19.60
2022-10-17T20:18:44.150Z,19.30
2022-10-17T20:21:13.550Z,19.60
2022-10-17T20:23:41.194Z,19.59
2022-10-17T20:26:25.779Z,19.28
2022-10-17T20:28:53.773Z,19.57
2022-10-17T20:31:23.857Z,19.31
2022-10-17T20:33:54.882Z,19.54
2022-10-17T20:36:23.501Z,19.55
2022-10-17T20:38:53.865Z,19.56
2022-10-17T20:41:21.423Z,19.54
2022-10-17T20:43:50.861Z,19.56
2022-10-17T20:46:35.115Z,19.55
2022-10-17T20:49:04.703Z,19.55
2022-10-17T20:51:32.128Z,19.54
2022-10-17T20:53:59.596Z,19.53
2022-10-17T20:56:27.885Z,19.35
2022-10-17T20:58:56.157Z,19.53
2022-10-17T21:01:23.795Z,19.33
2022-10-17T21:03:51.268Z,19.53
2022-10-17T21:06:20.108Z,19.23
2022-10-17T21:08:48.185Z,19.52
2022-10-17T21:11:16.872Z,19.52
2022-10-17T21:13:44.338Z,19.36
2022-10-17T21:16:12.574Z,19.19
2022-10-17T21:18:40.317Z,19.50
2022-10-17T21:21:09.500Z,19.51
2022-10-17T21:23:38.361Z,19.31
2022-10-17T21:26:07.264Z,19.50
2022-10-17T21:28:35.446Z,19.50
2022-10-17T21:31:13.920Z,19.51
2022-10-17T21:33:41.802Z,19.49
2022-10-17T21:36:09.644Z,19.48
2022-10-17T21:38:38.562Z,19.48
2022-10-17T21:41:06.488Z,19.28
2022-10-17T21:43:34.478Z,19.48
2022-10-17T21:46:03.470Z,19.48
2022-10-17T21:48:30.990Z,19.22
2022-10-17T21:51:00.528Z,19.28
2022-10-17T21:53:28.026Z,19.43
2022-10-17T21:55:59.370Z,19.45
2022-10-17T21:58:26.805Z,19.46
2022-10-17T22:00:54.249Z,19.44
2022-10-17T22:03:21.704Z,19.45
2022-10-17T22:05:49.187Z,19.45
2022-10-17T22:08:16.686Z,19.45
2022-10-17T22:10:44.160Z,19.44
2022-10-17T22:13:12.978Z,19.43
2022-10-17T22:15:40.432Z,19.43
2022-10-17T22:18:07.922Z,19.43
2022-10-17T22:20:35.358Z,19.42
2022-10-17T22:23:02.828Z,19.43
2022-10-17T22:25:30.269Z,19.40
2022-10-17T22:27:57.728Z,19.43
2022-10-17T22:30:26.513Z,19.32
2022-10-17T22:32:53.961Z,19.42
2022-10-17T22:35:21.419Z,19.35
2022-10-17T22:37:48.854Z,19.41
2022-10-17T22:40:16.470Z,19.40
2022-10-17T22:42:43.917Z,19.40
2022-10-17T22:45:11.629Z,19.40
2022-10-17T22:47:40.388Z,19.41
2022-10-17T22:50:08.278Z,19.39
2022-10-17T22:52:35.712Z,19.38
2022-10-17T22:55:04.413Z,19.37
2022-10-17T22:57:31.867Z,19.38
2022-10-17T22:59:59.343Z,19.37
2022-10-17T23:02:26.828Z,19.37
2022-10-17T23:04:55.694Z,19.36
2022-10-17T23:07:23.124Z,19.35
2022-10-17T23:09:50.630Z,19.35
2022-10-17T23:12:18.166Z,19.35
2022-10-17T23:14:45.813Z,19.35
2022-10-17T23:17:13.689Z,19.05
2022-10-17T23:19:41.385Z,19.34
2022-10-17T23:22:10.249Z,19.15
2022-10-17T23:24:37.686Z,19.34
2022-10-17T23:27:05.143Z,19.32
2022-10-17T23:29:33.043Z,19.27
2022-10-17T23:32:00.473Z,19.32
2022-10-17T23:34:28.170Z,19.32
2022-10-17T23:36:55.631Z,19.31
2022-10-17T23:39:24.448Z,19.31
2022-10-17T23:41:51.904Z,19.30
2022-10-17T23:44:19.362Z,19.30
2022-10-17T23:46:46.821Z,19.29
2022-10-17T23:49:14.439Z,19.30
2022-10-17T23:51:41.881Z,19.29
2022-10-17T23:54:09.332Z,19.30
2022-10-17T23:56:38.113Z,19.29
2022-10-17T23:59:05.549Z,19.29
